Time;durP1;ratioP1;P1;durP2;ratioP2;P2;SDS_P1;SDS_P2;PMS_P1;PMS_P2;Temp;Humidity;BMP_temperature;BMP_pressure;BME280_temperature;BME280_humidity;BME280_pressure;Samples;Min_cycle;Max_cycle;Signal;HPM_P1;HPM_P2
2022/07/01 00:02:09;;;;;;;2.25;1.60;;;17.00;99.90;;;;;;6218053;23;20184;-72
2022/07/01 00:04:35;;;;;;;1.75;1.50;;;17.10;99.90;;;;;;6215534;23;20149;-73
2022/07/01 00:07:03;;;;;;;2.40;1.67;;;17.00;99.90;;;;;;6214497;23;20366;-73
2022/07/01 00:09:28;;;;;;;1.83;1.40;;;17.10;99.90;;;;;;6217961;23;20472;-71
2022/07/01 00:11:56;;;;;;;2.42;1.70;;;17.10;99.90;;;;;;6214249;23;20160;-71
2022/07/01 00:14:24;;;;;;;2.25;1.48;;;17.10;99.90;;;;;;6217212;23;20204;-71
2022/07/01 00:16:50;;;;;;;1.58;1.48;;;17.00;99.90;;;;;;6212978;23;20454;-70
2022/07/01 00:19:17;;;;;;;1.88;1.20;;;17.00;99.90;;;;;;6219231;23;20164;-72
2022/07/01 00:21:42;;;;;;;1.67;1.40;;;17.00;99.90;;;;;;6213148;23;20181;-72
2022/07/01 00:24:08;;;;;;;1.73;1.40;;;17.00;99.90;;;;;;6212946;23;20173;-68
2022/07/01 00:26:33;;;;;;;1.90;1.50;;;17.00;99.90;;;;;;6214588;23;20149;-72
2022/07/01 00:29:01;;;;;;;2.67;1.38;;;17.00;99.90;;;;;;6216723;23;20153;-68
2022/07/01 00:31:27;;;;;;;1.40;1.20;;;17.00;99.90;;;;;;6213556;23;20185;-72
2022/07/01 00:33:52;;;;;;;1.90;1.20;;;17.00;99.90;;;;;;6215004;23;20176;-70
2022/07/01 00:36:18;;;;;;;2.88;1.60;;;17.10;99.90;;;;;;6217132;23;20166;-72
2022/07/01 00:38:46;;;;;;;1.92;1.48;;;17.00;99.90;;;;;;6214703;23;20259;-69
2022/07/01 00:41:12;;;;;;;1.83;1.50;;;17.10;99.90;;;;;;6217197;23;20252;-69
2022/07/01 00:43:38;;;;;;;1.98;1.50;;;17.00;99.90;;;;;;6217000;23;20258;-72
2022/07/01 00:46:04;;;;;;;2.03;1.67;;;17.00;99.90;;;;;;6212715;23;20149;-70
2022/07/01 00:48:33;;;;;;;1.90;1.60;;;17.00;99.90;;;;;;6218459;23;20138;-72
2022/07/01 00:51:01;;;;;;;2.47;1.80;;;17.00;99.90;;;;;;6214643;23;20240;-70
2022/07/01 00:53:28;;;;;;;2.00;1.80;;;17.00;99.90;;;;;;6214918;23;20161;-73
2022/07/01 00:55:53;;;;;;;2.83;1.88;;;17.00;99.90;;;;;;6220117;23;20191;-66
2022/07/01 00:58:21;;;;;;;1.70;1.50;;;17.00;99.90;;;;;;6215087;23;20197;-73
2022/07/01 01:00:49;;;;;;;2.10;1.55;;;16.90;99.90;;;;;;6213829;23;20207;-73
2022/07/01 01:03:17;;;;;;;1.95;1.30;;;16.90;99.90;;;;;;6211926;23;20200;-71
2022/07/01 01:05:45;;;;;;;2.10;1.50;;;16.90;99.90;;;;;;6216766;23;20523;-73
2022/07/01 01:08:11;;;;;;;1.70;1.45;;;17.00;99.90;;;;;;6217570;23;20225;-69
2022/07/01 01:10:38;;;;;;;1.65;1.40;;;17.00;99.90;;;;;;6217563;23;20191;-71
2022/07/01 01:13:04;;;;;;;1.90;1.70;;;17.00;99.90;;;;;;6215088;23;20189;-73
2022/07/01 01:15:31;;;;;;;2.00;1.50;;;17.00;99.90;;;;;;6219308;23;20184;-69
2022/07/01 01:17:56;;;;;;;1.75;1.48;;;17.00;99.90;;;;;;6218839;23;20162;-71
2022/07/01 01:20:22;;;;;;;1.77;1.60;;;17.00;99.90;;;;;;6216098;23;20154;-66
2022/07/01 01:22:51;;;;;;;1.70;1.50;;;17.00;99.90;;;;;;6219106;23;20200;-70
2022/07/01 01:25:17;;;;;;;2.45;1.45;;;17.00;99.90;;;;;;6217659;23;20161;-72
2022/07/01 01:27:43;;;;;;;2.40;1.83;;;17.10;99.90;;;;;;6214055;23;20149;-72
2022/07/01 01:30:11;;;;;;;3.05;1.50;;;17.00;99.90;;;;;;6214504;23;20149;-71
2022/07/01 01:32:38;;;;;;;2.03;1.83;;;17.00;99.90;;;;;;6217831;23;20260;-69
2022/07/01 01:35:04;;;;;;;2.15;1.60;;;17.00;99.90;;;;;;6215050;23;20164;-72
2022/07/01 01:37:30;;;;;;;2.55;1.80;;;16.90;99.90;;;;;;6214335;23;20246;-72
2022/07/01 01:39:55;;;;;;;3.88;1.80;;;16.90;99.90;;;;;;6215978;23;20165;-72
2022/07/01 01:42:26;;;;;;;4.05;1.60;;;16.90;99.90;;;;;;6214071;23;20244;-65
2022/07/01 01:44:54;;;;;;;2.30;1.60;;;16.90;99.90;;;;;;6215417;23;20169;-68
2022/07/01 01:47:22;;;;;;;1.83;1.48;;;16.90;99.90;;;;;;6215618;23;20153;-73
2022/07/01 01:49:48;;;;;;;1.80;1.30;;;16.90;99.90;;;;;;6214703;23;20352;-71
2022/07/01 01:52:16;;;;;;;2.53;1.70;;;16.90;99.90;;;;;;6218482;23;20187;-71
2022/07/01 01:54:46;;;;;;;2.22;1.50;;;16.90;99.90;;;;;;6216840;23;20185;-68
2022/07/01 01:57:14;;;;;;;3.38;1.70;;;16.90;99.90;;;;;;6214353;23;20181;-71
2022/07/01 01:59:43;;;;;;;1.40;1.30;;;16.90;99.90;;;;;;6223505;23;20173;-72
2022/07/01 02:02:09;;;;;;;3.60;1.60;;;17.00;99.90;;;;;;6217609;23;20253;-70
2022/07/01 02:04:34;;;;;;;1.67;1.50;;;17.00;99.90;;;;;;6215038;23;20544;-73
2022/07/01 02:07:00;;;;;;;1.30;1.20;;;17.00;99.90;;;;;;6211948;23;20160;-71
2022/07/01 02:09:29;;;;;;;1.17;1.08;;;16.90;99.90;;;;;;6211993;23;20241;-72
2022/07/01 02:11:54;;;;;;;1.27;1.17;;;16.90;99.90;;;;;;6213777;23;20142;-70
2022/07/01 02:14:20;;;;;;;3.22;1.38;;;16.90;99.90;;;;;;6212355;23;20429;-71
2022/07/01 02:16:46;;;;;;;2.95;1.20;;;16.90;99.90;;;;;;6217157;23;20165;-70
2022/07/01 02:19:11;;;;;;;2.97;1.10;;;16.90;99.90;;;;;;6214334;23;20153;-71
2022/07/01 02:21:42;;;;;;;1.63;1.00;;;16.90;99.90;;;;;;6212116;23;20188;-73
2022/07/01 02:24:09;;;;;;;2.60;1.20;;;16.90;99.90;;;;;;6215842;23;20200;-70
2022/07/01 02:26:35;;;;;;;1.17;1.05;;;16.90;99.90;;;;;;6213837;23;20168;-71
2022/07/01 02:29:01;;;;;;;2.03;1.40;;;16.90;99.90;;;;;;6214860;23;20165;-71
2022/07/01 02:31:27;;;;;;;1.23;1.10;;;16.90;99.90;;;;;;6214805;23;20215;-72
2022/07/01 02:33:55;;;;;;;1.10;1.00;;;16.90;99.90;;;;;;6217172;23;20335;-71
2022/07/01 02:36:23;;;;;;;1.67;1.10;;;16.90;99.90;;;;;;6219953;23;20190;-72
2022/07/01 02:38:48;;;;;;;1.75;1.02;;;16.80;99.90;;;;;;6215460;23;20157;-67
2022/07/01 02:41:14;;;;;;;1.35;1.05;;;16.80;99.90;;;;;;6215345;23;20161;-71
2022/07/01 02:43:42;;;;;;;1.95;1.02;;;16.80;99.90;;;;;;6218614;23;20244;-72
2022/07/01 02:46:08;;;;;;;1.88;1.00;;;16.80;99.90;;;;;;6215752;23;20178;-72
2022/07/01 02:48:34;;;;;;;1.02;0.90;;;16.80;99.90;;;;;;6214403;23;20153;-70
2022/07/01 02:50:59;;;;;;;1.27;0.90;;;16.80;99.90;;;;;;6214395;23;20163;-72
2022/07/01 02:53:25;;;;;;;1.20;0.75;;;16.80;99.90;;;;;;6214218;23;20165;-72
2022/07/01 02:55:53;;;;;;;1.40;1.10;;;16.70;99.90;;;;;;6216559;23;20179;-73
2022/07/01 02:58:18;;;;;;;1.20;1.10;;;16.70;99.90;;;;;;6214146;23;20161;-70
2022/07/01 03:00:48;;;;;;;1.50;1.10;;;16.70;99.90;;;;;;6215748;23;20316;-70
2022/07/01 03:03:16;;;;;;;3.22;1.30;;;16.70;99.90;;;;;;6214092;23;20533;-72
2022/07/01 03:05:42;;;;;;;1.65;1.20;;;16.70;99.90;;;;;;6214139;23;20264;-72
2022/07/01 03:08:08;;;;;;;2.20;1.17;;;16.70;99.90;;;;;;6214612;23;20180;-73
2022/07/01 03:10:33;;;;;;;1.67;1.25;;;16.70;99.90;;;;;;6214010;23;20257;-74
2022/07/01 03:13:01;;;;;;;1.10;1.00;;;16.70;99.90;;;;;;6214429;23;20157;-73
2022/07/01 03:15:27;;;;;;;1.20;1.10;;;16.70;99.90;;;;;;6214554;23;20181;-73
2022/07/01 03:17:53;;;;;;;1.13;1.02;;;16.70;99.90;;;;;;6214525;23;20160;-73
2022/07/01 03:20:18;;;;;;;1.40;1.20;;;16.80;99.90;;;;;;6214478;23;20161;-73
2022/07/01 03:22:49;;;;;;;1.15;1.00;;;16.80;99.90;;;;;;6214058;23;20181;-70
2022/07/01 03:25:18;;;;;;;1.23;1.08;;;16.80;99.90;;;;;;6213917;23;20219;-73
2022/07/01 03:27:47;;;;;;;1.40;1.23;;;16.80;99.90;;;;;;6213998;23;20149;-72
2022/07/01 03:30:14;;;;;;;2.30;1.42;;;16.80;99.90;;;;;;6214129;23;20157;-73
2022/07/01 03:32:44;;;;;;;2.58;1.45;;;16.80;99.90;;;;;;6213597;23;20150;-72
2022/07/01 03:37:57;;;;;;;1.52;1.40;;;16.80;99.90;;;;;;6214454;23;20147;-73
2022/07/01 03:40:25;;;;;;;2.03;1.20;;;16.80;99.90;;;;;;6214471;23;20171;-73
2022/07/01 03:42:51;;;;;;;1.40;1.25;;;16.80;99.90;;;;;;6213433;23;20185;-73
2022/07/01 03:45:17;;;;;;;1.52;1.10;;;16.80;99.90;;;;;;6213407;23;20207;-73
2022/07/01 03:47:49;;;;;;;1.38;1.27;;;16.80;99.90;;;;;;6213797;23;20165;-72
2022/07/01 03:50:16;;;;;;;1.30;1.10;;;16.80;99.90;;;;;;6213952;23;20149;-71
2022/07/01 03:52:42;;;;;;;1.27;1.17;;;16.80;99.90;;;;;;6213734;23;20153;-73
2022/07/01 03:55:14;;;;;;;1.35;1.10;;;16.80;99.90;;;;;;6213875;23;20153;-71
2022/07/01 03:57:42;;;;;;;1.20;1.10;;;16.70;99.90;;;;;;6213639;23;20244;-71
2022/07/01 04:00:10;;;;;;;1.40;1.20;;;16.70;99.90;;;;;;6215048;23;20325;-73
2022/07/01 04:02:36;;;;;;;1.95;1.20;;;16.70;99.90;;;;;;6213338;23;20268;-72
2022/07/01 04:05:01;;;;;;;1.35;1.17;;;16.80;99.90;;;;;;6214004;23;20247;-72
2022/07/01 04:07:27;;;;;;;1.25;1.10;;;16.80;99.90;;;;;;6216765;23;20184;-72
2022/07/01 04:09:55;;;;;;;1.52;1.17;;;16.80;99.90;;;;;;6217147;23;20261;-73
2022/07/01 04:12:26;;;;;;;1.20;1.10;;;16.80;99.90;;;;;;6213659;23;20201;-73
2022/07/01 04:14:54;;;;;;;2.50;1.20;;;16.80;99.90;;;;;;6213967;23;20401;-72
2022/07/01 04:17:19;;;;;;;1.52;1.15;;;16.80;99.90;;;;;;6214041;23;20248;-72
2022/07/01 04:19:45;;;;;;;1.45;1.20;;;16.80;99.90;;;;;;6212935;23;20328;-72
2022/07/01 04:24:58;;;;;;;1.80;1.30;;;16.80;99.90;;;;;;6214906;23;20164;-72
2022/07/01 04:27:23;;;;;;;2.70;1.20;;;16.80;99.90;;;;;;6213645;23;20154;-73
2022/07/01 04:29:49;;;;;;;1.33;1.23;;;16.80;99.90;;;;;;6213125;23;20232;-73
2022/07/01 04:32:15;;;;;;;1.45;1.20;;;16.70;99.90;;;;;;6213253;23;20172;-73
2022/07/01 04:34:43;;;;;;;1.13;0.98;;;16.70;99.90;;;;;;6214794;23;20431;-68
2022/07/01 04:37:12;;;;;;;1.90;1.05;;;16.70;99.90;;;;;;6213362;23;20161;-72
2022/07/01 04:39:37;;;;;;;2.42;1.13;;;16.70;99.90;;;;;;6215307;23;20167;-70
2022/07/01 04:42:04;;;;;;;4.40;1.10;;;16.70;99.90;;;;;;6213656;23;20201;-69
2022/07/01 04:44:37;;;;;;;2.70;1.40;;;16.70;99.90;;;;;;6212920;23;20269;-72
2022/07/01 04:47:04;;;;;;;1.40;1.10;;;16.70;99.90;;;;;;6212710;23;20215;-70
2022/07/01 04:49:30;;;;;;;1.13;1.02;;;16.70;99.90;;;;;;6213326;23;20153;-74
2022/07/01 04:52:00;;;;;;;1.15;1.02;;;16.80;99.90;;;;;;6212939;23;20236;-70
2022/07/01 04:54:26;;;;;;;1.77;1.00;;;16.80;99.90;;;;;;6213100;23;20240;-72
2022/07/01 04:56:54;;;;;;;1.80;1.25;;;16.80;99.90;;;;;;6214356;23;20153;-73
2022/07/01 04:59:20;;;;;;;1.52;1.17;;;16.80;99.90;;;;;;6213540;23;20248;-72
2022/07/01 05:01:49;;;;;;;1.77;1.00;;;16.80;99.90;;;;;;6213497;23;20266;-73
2022/07/01 05:04:18;;;;;;;1.70;1.00;;;16.80;99.90;;;;;;6214462;23;20161;-72
2022/07/01 05:06:46;;;;;;;1.65;1.20;;;16.80;99.90;;;;;;6214165;23;20431;-69
2022/07/01 05:09:12;;;;;;;2.53;1.15;;;16.80;99.90;;;;;;6214067;23;20169;-71
2022/07/01 05:11:39;;;;;;;2.33;1.25;;;16.80;99.90;;;;;;6214822;23;20181;-71
2022/07/01 05:14:05;;;;;;;1.55;1.05;;;16.70;99.90;;;;;;6218573;23;20184;-72
2022/07/01 05:16:32;;;;;;;2.85;1.17;;;16.70;99.90;;;;;;6218762;23;20154;-73
2022/07/01 05:22:00;;;;;;;1.65;1.02;;;16.70;99.90;;;;;;6217473;23;20144;-72
2022/07/01 05:24:30;;;;;;;1.33;1.08;;;16.70;99.90;;;;;;6216702;23;20181;-72
2022/07/01 05:26:57;;;;;;;3.08;1.30;;;16.70;99.90;;;;;;6220792;23;20157;-71
2022/07/01 05:29:23;;;;;;;2.83;1.48;;;16.80;99.90;;;;;;6217808;23;20149;-72
2022/07/01 05:31:49;;;;;;;2.67;1.38;;;16.80;99.90;;;;;;6214993;23;20202;-68
2022/07/01 05:34:17;;;;;;;3.33;1.35;;;16.70;99.90;;;;;;6219557;23;20256;-72
2022/07/01 05:36:42;;;;;;;2.92;1.42;;;16.70;99.90;;;;;;6215546;23;20153;-73
2022/07/01 05:39:08;;;;;;;4.28;1.35;;;16.70;99.90;;;;;;6216918;23;20168;-73
2022/07/01 05:41:34;;;;;;;5.57;1.42;;;16.70;99.90;;;;;;6218057;23;20163;-70
2022/07/01 05:44:00;;;;;;;2.88;1.50;;;16.70;99.90;;;;;;6215822;23;20184;-69
2022/07/01 05:46:28;;;;;;;3.53;1.58;;;16.60;99.90;;;;;;6218442;23;20161;-73
2022/07/01 05:48:54;;;;;;;2.13;1.40;;;16.60;99.90;;;;;;6218412;23;20244;-73
2022/07/01 05:51:23;;;;;;;2.72;1.33;;;16.60;99.90;;;;;;6216024;23;20224;-74
2022/07/01 05:53:48;;;;;;;1.92;1.08;;;16.60;99.90;;;;;;6217446;23;20159;-73
2022/07/01 05:56:15;;;;;;;2.97;1.30;;;16.70;99.90;;;;;;6219220;23;20213;-74
2022/07/01 05:58:43;;;;;;;3.45;1.30;;;16.70;99.90;;;;;;6218051;23;20251;-74
2022/07/01 06:01:08;;;;;;;2.53;1.30;;;16.80;99.90;;;;;;6218442;23;20153;-70
2022/07/01 06:03:39;;;;;;;2.97;1.33;;;16.80;99.90;;;;;;6223327;23;20260;-73
2022/07/01 06:06:05;;;;;;;2.58;1.25;;;16.90;99.90;;;;;;6215888;23;20153;-72
2022/07/01 06:08:30;;;;;;;1.38;1.10;;;16.90;99.90;;;;;;6215529;23;20256;-73
2022/07/01 06:10:56;;;;;;;1.35;1.20;;;17.00;99.90;;;;;;6215007;23;20153;-73
2022/07/01 06:13:22;;;;;;;1.40;1.00;;;17.00;99.90;;;;;;6218241;23;20207;-69
2022/07/01 06:15:47;;;;;;;1.83;1.15;;;17.10;99.90;;;;;;6217669;23;20172;-69
2022/07/01 06:18:16;;;;;;;2.72;1.50;;;17.10;99.90;;;;;;6217543;23;20181;-73
2022/07/01 06:20:41;;;;;;;3.70;1.27;;;17.10;99.90;;;;;;6216928;23;20154;-72
2022/07/01 06:23:07;;;;;;;1.23;1.10;;;17.10;99.90;;;;;;6217500;23;20177;-70
2022/07/01 06:25:32;;;;;;;2.55;1.50;;;17.20;99.90;;;;;;6219939;23;20180;-72
2022/07/01 06:28:01;;;;;;;2.75;1.40;;;17.10;99.90;;;;;;6216603;23;20157;-72
2022/07/01 06:30:26;;;;;;;2.78;1.70;;;17.20;99.90;;;;;;6217671;23;20165;-75
2022/07/01 06:32:57;;;;;;;2.08;1.30;;;17.20;99.90;;;;;;6216719;23;20157;-74
2022/07/01 06:35:22;;;;;;;2.88;1.30;;;17.20;99.90;;;;;;6216382;23;20205;-73
2022/07/01 06:37:50;;;;;;;2.92;1.30;;;17.20;99.90;;;;;;6215893;23;20150;-71
2022/07/01 06:40:18;;;;;;;2.05;1.20;;;17.20;99.90;;;;;;6214491;23;20153;-74
2022/07/01 06:42:44;;;;;;;2.15;1.30;;;17.30;99.90;;;;;;6215106;23;20307;-73
2022/07/01 06:45:11;;;;;;;2.40;1.65;;;17.30;99.90;;;;;;6218135;23;20149;-72
2022/07/01 06:47:36;;;;;;;1.35;1.10;;;17.30;99.90;;;;;;6216255;23;20149;-74
2022/07/01 06:50:03;;;;;;;2.40;1.20;;;17.40;99.90;;;;;;6215892;23;20149;-69
2022/07/01 06:52:28;;;;;;;1.75;1.40;;;17.40;99.90;;;;;;6214735;23;20177;-71
2022/07/01 06:54:57;;;;;;;4.68;1.40;;;17.50;99.90;;;;;;6217678;23;20295;-73
2022/07/01 06:57:22;;;;;;;3.33;1.17;;;17.50;99.90;;;;;;6217198;23;20161;-73
2022/07/01 06:59:49;;;;;;;2.95;1.45;;;17.60;99.90;;;;;;6215983;23;20173;-72
2022/07/01 07:02:14;;;;;;;1.30;0.95;;;17.70;99.90;;;;;;6218967;23;20268;-72
2022/07/01 07:04:40;;;;;;;1.20;1.08;;;17.80;99.90;;;;;;6215791;23;20248;-73
2022/07/01 07:07:10;;;;;;;2.15;1.30;;;17.90;99.90;;;;;;6215678;23;20150;-73
2022/07/01 07:09:36;;;;;;;2.20;1.30;;;18.00;99.90;;;;;;6216275;23;20165;-72
2022/07/01 07:12:05;;;;;;;1.52;1.30;;;18.00;99.90;;;;;;6218568;23;20207;-73
2022/07/01 07:14:35;;;;;;;2.83;1.20;;;18.10;99.90;;;;;;6217049;23;20224;-69
2022/07/01 07:17:01;;;;;;;1.30;1.17;;;18.10;99.90;;;;;;6213939;23;20149;-73
2022/07/01 07:19:26;;;;;;;1.38;1.10;;;18.10;99.90;;;;;;6215776;23;20196;-73
2022/07/01 07:21:52;;;;;;;1.48;1.27;;;18.10;99.90;;;;;;6220483;23;20154;-74
2022/07/01 07:24:22;;;;;;;1.38;1.13;;;18.10;99.90;;;;;;6217497;23;20177;-72
2022/07/01 07:26:48;;;;;;;3.03;1.38;;;18.20;99.90;;;;;;6220793;23;20228;-73
2022/07/01 07:29:16;;;;;;;2.28;1.25;;;18.20;99.90;;;;;;6218533;23;20184;-74
2022/07/01 07:31:41;;;;;;;3.67;1.20;;;18.30;99.90;;;;;;6221460;23;20146;-72
2022/07/01 07:34:07;;;;;;;1.50;1.10;;;18.30;99.90;;;;;;6218775;23;20223;-74
2022/07/01 07:36:33;;;;;;;1.58;1.10;;;18.40;99.90;;;;;;6216678;23;20185;-74
2022/07/01 07:39:00;;;;;;;1.70;1.20;;;18.40;99.90;;;;;;6216468;23;20154;-72
2022/07/01 07:41:26;;;;;;;2.58;1.23;;;18.50;99.90;;;;;;6216141;23;20177;-72
2022/07/01 07:43:51;;;;;;;2.10;1.02;;;18.50;99.90;;;;;;6215308;23;20232;-72
2022/07/01 07:46:19;;;;;;;1.30;0.95;;;18.60;99.90;;;;;;6216801;23;20166;-74
2022/07/01 07:48:45;;;;;;;1.95;1.10;;;18.60;99.90;;;;;;6215583;23;20240;-73
2022/07/01 07:51:15;;;;;;;6.57;1.13;;;18.70;99.90;;;;;;6215560;23;20180;-73
2022/07/01 07:53:41;;;;;;;2.55;1.15;;;18.80;99.90;;;;;;6215846;23;20234;-75
2022/07/01 07:56:09;;;;;;;2.47;1.30;;;18.80;99.90;;;;;;6216476;23;20202;-73
2022/07/01 07:58:36;;;;;;;2.88;1.02;;;18.80;99.90;;;;;;6214982;23;20177;-71
2022/07/01 08:01:04;;;;;;;2.00;1.30;;;18.80;99.90;;;;;;6215996;23;20228;-74
2022/07/01 08:03:30;;;;;;;1.52;1.20;;;18.80;99.90;;;;;;6216219;23;20487;-71
2022/07/01 08:05:57;;;;;;;3.75;1.20;;;18.90;99.90;;;;;;6215049;23;20145;-74
2022/07/01 08:08:23;;;;;;;5.00;1.15;;;18.90;99.90;;;;;;6215472;23;20149;-73
2022/07/01 08:10:49;;;;;;;2.45;1.30;;;18.90;99.90;;;;;;6215360;23;20220;-73
2022/07/01 08:13:14;;;;;;;2.90;1.00;;;18.90;99.90;;;;;;6216359;23;20262;-72
2022/07/01 08:15:43;;;;;;;2.38;1.02;;;18.90;99.90;;;;;;6215749;23;20157;-73
2022/07/01 08:18:09;;;;;;;1.67;0.98;;;18.90;99.90;;;;;;6216311;23;20157;-73
2022/07/01 08:20:34;;;;;;;1.88;0.90;;;18.90;99.90;;;;;;6215298;23;20499;-72
2022/07/01 08:23:00;;;;;;;1.77;0.95;;;18.90;99.90;;;;;;6217117;23;20176;-74
2022/07/01 08:25:28;;;;;;;1.58;0.90;;;18.90;99.90;;;;;;6220253;23;20176;-74
2022/07/01 08:27:56;;;;;;;1.05;0.80;;;18.90;99.90;;;;;;6220592;23;20213;-72
2022/07/01 08:30:24;;;;;;;0.98;0.65;;;18.90;99.90;;;;;;6221703;23;20181;-69
2022/07/01 08:32:54;;;;;;;1.75;0.80;;;18.90;99.90;;;;;;6219032;23;20470;-73
2022/07/01 08:35:22;;;;;;;2.30;0.88;;;18.90;99.90;;;;;;6217434;23;20223;-73
2022/07/01 08:37:48;;;;;;;1.85;0.90;;;18.90;99.90;;;;;;6217125;23;20236;-70
2022/07/01 08:40:16;;;;;;;1.15;0.82;;;18.90;99.90;;;;;;6216577;23;20233;-73
2022/07/01 08:42:42;;;;;;;1.58;0.95;;;18.90;99.90;;;;;;6219238;23;20281;-68
2022/07/01 08:45:09;;;;;;;1.30;0.88;;;18.90;99.90;;;;;;6215969;23;20177;-74
2022/07/01 08:47:48;;;;;;;4.93;1.17;;;18.90;99.90;;;;;;6216715;23;20197;-72
2022/07/01 08:50:16;;;;;;;0.90;0.70;;;18.90;99.90;;;;;;6217324;23;20149;-74
2022/07/01 08:52:44;;;;;;;2.55;0.90;;;18.90;99.90;;;;;;6217851;23;20223;-74
2022/07/01 08:55:10;;;;;;;1.60;1.00;;;19.00;99.90;;;;;;6217564;23;20184;-72
2022/07/01 08:57:36;;;;;;;1.77;0.93;;;19.00;99.90;;;;;;6217792;23;20153;-73
2022/07/01 09:00:07;;;;;;;1.38;0.90;;;19.10;99.90;;;;;;6216463;23;20188;-73
2022/07/01 09:02:53;;;;;;;1.30;0.93;;;19.10;99.90;;;;;;6217393;23;20250;-72
2022/07/01 09:05:20;;;;;;;1.60;0.80;;;19.30;99.90;;;;;;6220434;23;20177;-71
2022/07/01 09:07:47;;;;;;;1.48;0.95;;;19.40;99.90;;;;;;6223376;23;20226;-73
2022/07/01 09:10:18;;;;;;;1.23;0.80;;;19.50;99.90;;;;;;6221419;23;20184;-73
2022/07/01 09:12:45;;;;;;;2.17;0.70;;;19.60;99.90;;;;;;6216684;23;20157;-70
2022/07/01 09:15:27;;;;;;;1.45;1.00;;;19.70;99.90;;;;;;6220742;23;20191;-72
2022/07/01 09:17:54;;;;;;;2.58;0.80;;;19.80;99.90;;;;;;6222846;23;20156;-73
2022/07/01 09:20:30;;;;;;;1.88;0.85;;;19.80;99.90;;;;;;6217161;23;20157;-71
2022/07/01 09:23:10;;;;;;;1.00;0.73;;;19.90;99.90;;;;;;6215646;23;20291;-73
2022/07/01 09:25:47;;;;;;;1.38;0.77;;;20.00;99.90;;;;;;6220864;23;20149;-72
2022/07/01 09:28:17;;;;;;;1.95;0.82;;;20.10;99.90;;;;;;6217539;23;20463;-73
2022/07/01 09:30:46;;;;;;;0.90;0.70;;;20.10;99.90;;;;;;6215470;23;20160;-75
2022/07/01 09:33:18;;;;;;;3.83;0.65;;;20.10;99.90;;;;;;6216314;23;20213;-72
2022/07/01 09:35:45;;;;;;;0.93;0.60;;;20.10;99.90;;;;;;6217616;23;20153;-74
2022/07/01 09:38:13;;;;;;;1.13;0.90;;;20.10;99.90;;;;;;6216495;23;20153;-71
2022/07/01 09:40:55;;;;;;;1.40;0.60;;;20.10;99.90;;;;;;6216219;23;20189;-69
2022/07/01 09:43:33;;;;;;;1.23;0.80;;;20.10;99.90;;;;;;6221223;23;20416;-71
2022/07/01 09:46:07;;;;;;;1.25;0.63;;;20.20;99.90;;;;;;6217840;23;20149;-74
2022/07/01 09:48:33;;;;;;;1.98;0.70;;;20.20;99.90;;;;;;6214931;23;20148;-71
2022/07/01 09:50:59;;;;;;;1.02;0.70;;;20.30;99.90;;;;;;6218351;23;20153;-74
2022/07/01 09:53:25;;;;;;;2.63;0.75;;;20.30;99.90;;;;;;6217359;23;20180;-74
2022/07/01 09:55:51;;;;;;;1.00;0.60;;;20.40;99.90;;;;;;6219295;23;20153;-75
2022/07/01 09:58:17;;;;;;;2.10;0.90;;;20.40;99.90;;;;;;6217330;23;20177;-74
2022/07/01 10:00:44;;;;;;;1.20;0.60;;;20.40;99.90;;;;;;6218188;23;20183;-74
2022/07/01 10:03:10;;;;;;;0.88;0.70;;;20.50;99.90;;;;;;6214601;23;20268;-72
2022/07/01 10:05:43;;;;;;;0.90;0.70;;;20.50;99.90;;;;;;6215754;23;20149;-73
2022/07/01 10:08:27;;;;;;;2.63;0.70;;;20.50;99.90;;;;;;6217267;23;20209;-72
2022/07/01 10:11:34;;;;;;;1.20;0.65;;;20.60;99.90;;;;;;6221390;23;20152;-74
2022/07/01 10:14:04;;;;;;;0.98;0.68;;;20.60;99.90;;;;;;6216337;23;20176;-73
2022/07/01 10:16:31;;;;;;;1.67;0.65;;;20.60;99.90;;;;;;6217440;23;20177;-76
2022/07/01 10:18:57;;;;;;;0.88;0.60;;;20.70;99.90;;;;;;6217235;23;20232;-74
2022/07/01 10:21:31;;;;;;;0.60;0.45;;;20.70;99.90;;;;;;6216285;23;20204;-73
2022/07/01 10:24:27;;;;;;;1.52;0.57;;;20.70;99.90;;;;;;6216569;23;20307;-73
2022/07/01 10:27:00;;;;;;;1.23;0.70;;;20.70;99.90;;;;;;6193427;23;20205;-73
2022/07/01 10:29:38;;;;;;;1.17;0.70;;;20.80;99.90;;;;;;6218769;23;20129;-72
2022/07/01 10:32:11;;;;;;;1.63;0.57;;;20.80;99.90;;;;;;6218402;23;20149;-74
2022/07/01 10:34:41;;;;;;;1.20;0.60;;;20.90;99.90;;;;;;6217000;23;20145;-72
2022/07/01 10:37:11;;;;;;;0.77;0.60;;;21.00;99.90;;;;;;6218074;23;20158;-73
2022/07/01 10:40:06;;;;;;;1.23;0.60;;;21.00;99.90;;;;;;6215449;23;20164;-68
2022/07/01 10:42:58;;;;;;;1.08;0.45;;;21.10;99.90;;;;;;6212659;23;20192;-73
2022/07/01 10:45:26;;;;;;;0.85;0.50;;;21.30;99.90;;;;;;6214700;23;20213;-73
2022/07/01 10:48:21;;;;;;;1.55;0.55;;;21.60;99.90;;;;;;6216576;23;20154;-73
2022/07/01 10:50:47;;;;;;;0.68;0.57;;;22.00;99.90;;;;;;6214547;23;20522;-71
2022/07/01 10:53:19;;;;;;;2.40;0.60;;;22.30;99.90;;;;;;6219514;23;20157;-74
2022/07/01 10:55:48;;;;;;;2.28;0.60;;;22.70;99.90;;;;;;6221579;23;20153;-72
2022/07/01 10:58:15;;;;;;;2.50;2.08;;;22.90;99.90;;;;;;6226085;23;20170;-71
2022/07/01 11:00:45;;;;;;;1.95;1.20;;;23.20;99.90;;;;;;6218913;23;20342;-74
2022/07/01 11:03:19;;;;;;;1.70;1.10;;;23.40;99.90;;;;;;6224714;23;20268;-73
2022/07/01 11:05:47;;;;;;;1.30;0.80;;;23.60;99.90;;;;;;6220764;23;20153;-73
2022/07/01 11:08:13;;;;;;;0.73;0.70;;;23.60;99.90;;;;;;6218890;23;20189;-70
2022/07/01 11:10:44;;;;;;;1.67;1.10;;;23.70;99.90;;;;;;6226789;23;20156;-73
2022/07/01 11:13:14;;;;;;;1.80;0.90;;;23.70;99.90;;;;;;6220632;23;20153;-73
2022/07/01 11:15:40;;;;;;;1.70;0.75;;;23.80;99.90;;;;;;6217874;23;20408;-71
2022/07/01 11:18:09;;;;;;;0.57;0.50;;;23.90;99.90;;;;;;6217757;23;20174;-73
2022/07/01 11:20:35;;;;;;;0.82;0.50;;;24.00;99.90;;;;;;6221062;23;20292;-74
2022/07/01 11:23:02;;;;;;;0.63;0.40;;;24.00;99.90;;;;;;6218546;23;20189;-72
2022/07/01 11:25:30;;;;;;;0.93;0.50;;;24.00;99.90;;;;;;6218554;23;20253;-73
2022/07/01 11:27:58;;;;;;;1.33;0.50;;;23.90;99.90;;;;;;6216703;23;20164;-73
2022/07/01 11:30:24;;;;;;;2.13;0.60;;;23.70;99.90;;;;;;6217484;23;20153;-73
2022/07/01 11:32:56;;;;;;;0.88;0.60;;;23.50;99.90;;;;;;6215896;23;20218;-69
2022/07/01 11:41:19;;;;;;;1.20;0.70;;;23.10;99.90;;;;;;6217097;23;20195;-74
2022/07/01 11:43:45;;;;;;;1.35;0.70;;;23.00;99.90;;;;;;6215726;23;20225;-73
2022/07/01 11:46:11;;;;;;;2.05;0.70;;;22.80;99.90;;;;;;6216121;23;20154;-69
2022/07/01 11:48:39;;;;;;;1.88;0.57;;;22.70;99.90;;;;;;6215695;23;20213;-73
2022/07/01 11:51:12;;;;;;;0.80;0.40;;;22.70;99.90;;;;;;6215975;23;20172;-73
2022/07/01 11:53:42;;;;;;;1.52;0.77;;;22.70;99.90;;;;;;6216618;23;20153;-72
2022/07/01 11:56:09;;;;;;;1.02;0.80;;;22.60;99.90;;;;;;6215443;23;20169;-73
2022/07/01 11:58:49;;;;;;;1.05;0.60;;;22.70;99.90;;;;;;6215207;23;20322;-72
2022/07/01 12:01:31;;;;;;;1.10;0.50;;;22.70;99.90;;;;;;6215564;23;20185;-72
2022/07/01 12:03:59;;;;;;;2.33;1.30;;;22.80;99.90;;;;;;6215759;23;20183;-74
2022/07/01 12:06:26;;;;;;;1.17;0.90;;;22.90;99.90;;;;;;6215569;23;20160;-73
2022/07/01 12:08:56;;;;;;;1.95;1.42;;;23.10;99.90;;;;;;6218195;23;20157;-72
2022/07/01 12:11:24;;;;;;;2.58;1.02;;;23.30;99.90;;;;;;6219094;23;20256;-75
2022/07/01 12:13:54;;;;;;;1.85;1.10;;;23.60;99.90;;;;;;6218571;23;20168;-73
2022/07/01 12:16:20;;;;;;;1.58;1.15;;;24.10;99.90;;;;;;6219184;23;20219;-74
2022/07/01 12:19:01;;;;;;;1.08;0.75;;;24.50;99.90;;;;;;6216587;23;20188;-75
2022/07/01 12:21:29;;;;;;;1.08;0.77;;;25.00;99.90;;;;;;6216332;23;20149;-75
2022/07/01 12:24:08;;;;;;;0.60;0.60;;;25.40;99.90;;;;;;6216721;23;20208;-74
2022/07/01 12:26:35;;;;;;;1.65;0.70;;;25.60;99.90;;;;;;6215990;23;20295;-72
2022/07/01 12:29:03;;;;;;;0.73;0.55;;;25.80;99.90;;;;;;6216217;23;20164;-74
2022/07/01 12:31:29;;;;;;;1.25;0.80;;;25.80;99.90;;;;;;6215553;23;20149;-74
2022/07/01 12:33:57;;;;;;;0.70;0.57;;;25.80;99.90;;;;;;6215660;23;20169;-72
2022/07/01 12:36:23;;;;;;;1.70;0.60;;;25.70;99.90;;;;;;6216087;23;20184;-70
2022/07/01 12:39:02;;;;;;;1.13;0.70;;;25.70;99.90;;;;;;6215923;23;20318;-74
2022/07/01 12:41:33;;;;;;;0.65;0.55;;;25.60;99.90;;;;;;6214927;23;20183;-73
2022/07/01 12:44:17;;;;;;;0.60;0.40;;;25.60;99.90;;;;;;6215127;23;20240;-74
2022/07/01 12:46:45;;;;;;;1.52;0.70;;;25.40;99.90;;;;;;6215052;23;20145;-74
2022/07/01 12:49:27;;;;;;;0.75;0.50;;;25.40;99.90;;;;;;6215122;23;20155;-74
2022/07/01 12:51:55;;;;;;;0.60;0.60;;;25.40;99.90;;;;;;6218805;23;20161;-74
2022/07/01 12:54:37;;;;;;;0.98;0.70;;;25.40;99.90;;;;;;6219025;23;20173;-74
2022/07/01 12:57:06;;;;;;;0.70;0.50;;;25.30;99.90;;;;;;6221252;23;20211;-71
2022/07/01 12:59:31;;;;;;;1.00;0.60;;;25.20;99.90;;;;;;6220659;23;20229;-70
2022/07/01 13:02:01;;;;;;;1.00;0.50;;;25.00;99.90;;;;;;6224981;23;20161;-70
2022/07/01 13:04:28;;;;;;;0.65;0.40;;;24.80;99.90;;;;;;6217764;23;20183;-72
2022/07/01 13:06:54;;;;;;;1.08;0.57;;;24.60;99.90;;;;;;6222414;23;20161;-71
2022/07/01 13:09:20;;;;;;;1.98;0.68;;;24.40;99.90;;;;;;6222205;23;20149;-72